sensor_id;sensor_type;location;lat;lon;timestamp;P1;durP1;ratioP1;P2;durP2;ratioP2
50689;SDS011;54375;48.298;11.238;2023-05-03T00:09:34;10.55;;;7.15;;
50689;SDS011;54375;48.298;11.238;2023-05-03T00:24:36;10.48;;;7.72;;
50689;SDS011;54375;48.298;11.238;2023-05-03T00:39:39;13.40;;;8.20;;
50689;SDS011;54375;48.298;11.238;2023-05-03T00:54:42;47.30;;;10.73;;
50689;SDS011;54375;48.298;11.238;2023-05-03T01:09:46;13.32;;;6.57;;
50689;SDS011;54375;48.298;11.238;2023-05-03T01:25:01;12.80;;;8.52;;
50689;SDS011;54375;48.298;11.238;2023-05-03T01:40:08;115.05;;;14.10;;
50689;SDS011;54375;48.298;11.238;2023-05-03T01:55:13;38.70;;;10.38;;
50689;SDS011;54375;48.298;11.238;2023-05-03T02:10:16;19.60;;;8.88;;
50689;SDS011;54375;48.298;11.238;2023-05-03T02:25:18;14.32;;;8.63;;
50689;SDS011;54375;48.298;11.238;2023-05-03T02:40:21;14.45;;;7.78;;
50689;SDS011;54375;48.298;11.238;2023-05-03T02:55:24;16.98;;;8.82;;
50689;SDS011;54375;48.298;11.238;2023-05-03T03:10:26;13.52;;;8.20;;
50689;SDS011;54375;48.298;11.238;2023-05-03T03:25:28;14.80;;;9.57;;
50689;SDS011;54375;48.298;11.238;2023-05-03T03:40:31;20.63;;;11.40;;
50689;SDS011;54375;48.298;11.238;2023-05-03T03:55:33;75.22;;;15.98;;
50689;SDS011;54375;48.298;11.238;2023-05-03T04:10:35;27.30;;;13.40;;
50689;SDS011;54375;48.298;11.238;2023-05-03T04:25:38;46.95;;;15.07;;
50689;SDS011;54375;48.298;11.238;2023-05-03T04:40:40;27.10;;;15.38;;
50689;SDS011;54375;48.298;11.238;2023-05-03T04:55:42;32.63;;;17.70;;
50689;SDS011;54375;48.298;11.238;2023-05-03T05:10:44;29.05;;;15.88;;
50689;SDS011;54375;48.298;11.238;2023-05-03T05:25:46;29.73;;;17.70;;
50689;SDS011;54375;48.298;11.238;2023-05-03T05:40:49;40.67;;;19.38;;
50689;SDS011;54375;48.298;11.238;2023-05-03T05:55:51;39.92;;;17.85;;
50689;SDS011;54375;48.298;11.238;2023-05-03T06:10:53;34.22;;;17.60;;
50689;SDS011;54375;48.298;11.238;2023-05-03T06:25:56;29.50;;;18.83;;
50689;SDS011;54375;48.298;11.238;2023-05-03T06:40:58;38.17;;;19.67;;
50689;SDS011;54375;48.298;11.238;2023-05-03T06:56:00;34.88;;;21.17;;
50689;SDS011;54375;48.298;11.238;2023-05-03T07:11:03;36.45;;;20.83;;
50689;SDS011;54375;48.298;11.238;2023-05-03T07:26:05;35.88;;;20.30;;
50689;SDS011;54375;48.298;11.238;2023-05-03T07:41:08;39.50;;;22.50;;
50689;SDS011;54375;48.298;11.238;2023-05-03T07:56:10;41.28;;;23.48;;
50689;SDS011;54375;48.298;11.238;2023-05-03T08:11:12;34.95;;;22.30;;
50689;SDS011;54375;48.298;11.238;2023-05-03T08:26:14;35.35;;;21.67;;
50689;SDS011;54375;48.298;11.238;2023-05-03T08:41:17;32.90;;;19.80;;
50689;SDS011;54375;48.298;11.238;2023-05-03T08:56:24;26.98;;;17.27;;
50689;SDS011;54375;48.298;11.238;2023-05-03T09:11:30;28.38;;;20.50;;
50689;SDS011;54375;48.298;11.238;2023-05-03T09:26:34;34.95;;;21.63;;
50689;SDS011;54375;48.298;11.238;2023-05-03T09:41:36;33.03;;;20.35;;
50689;SDS011;54375;48.298;11.238;2023-05-03T09:56:38;32.78;;;21.67;;
50689;SDS011;54375;48.298;11.238;2023-05-03T10:11:44;32.58;;;21.42;;
50689;SDS011;54375;48.298;11.238;2023-05-03T10:26:50;40.95;;;24.70;;
50689;SDS011;54375;48.298;11.238;2023-05-03T10:42:00;39.97;;;24.95;;
50689;SDS011;54375;48.298;11.238;2023-05-03T10:57:04;36.92;;;24.15;;
50689;SDS011;54375;48.298;11.238;2023-05-03T11:12:07;28.83;;;20.05;;
50689;SDS011;54375;48.298;11.238;2023-05-03T11:27:11;27.88;;;18.48;;
50689;SDS011;54375;48.298;11.238;2023-05-03T11:42:13;20.83;;;15.20;;
50689;SDS011;54375;48.298;11.238;2023-05-03T11:57:16;18.92;;;15.00;;
50689;SDS011;54375;48.298;11.238;2023-05-03T12:12:20;16.05;;;13.30;;
50689;SDS011;54375;48.298;11.238;2023-05-03T12:27:22;12.60;;;10.80;;
50689;SDS011;54375;48.298;11.238;2023-05-03T12:42:24;11.70;;;8.23;;
50689;SDS011;54375;48.298;11.238;2023-05-03T12:57:26;8.82;;;7.00;;
50689;SDS011;54375;48.298;11.238;2023-05-03T13:12:29;8.85;;;5.80;;
50689;SDS011;54375;48.298;11.238;2023-05-03T13:27:31;9.20;;;7.10;;
50689;SDS011;54375;48.298;11.238;2023-05-03T13:42:33;8.25;;;6.00;;
50689;SDS011;54375;48.298;11.238;2023-05-03T13:57:36;8.65;;;6.20;;
50689;SDS011;54375;48.298;11.238;2023-05-03T14:12:38;8.18;;;5.90;;
50689;SDS011;54375;48.298;11.238;2023-05-03T14:27:40;8.40;;;6.00;;
50689;SDS011;54375;48.298;11.238;2023-05-03T14:42:42;8.65;;;7.28;;
50689;SDS011;54375;48.298;11.238;2023-05-03T14:57:44;10.35;;;8.02;;
50689;SDS011;54375;48.298;11.238;2023-05-03T15:12:47;7.32;;;6.13;;
50689;SDS011;54375;48.298;11.238;2023-05-03T15:27:50;7.25;;;5.43;;
50689;SDS011;54375;48.298;11.238;2023-05-03T15:42:54;7.55;;;5.53;;
50689;SDS011;54375;48.298;11.238;2023-05-03T15:57:56;7.30;;;5.22;;
50689;SDS011;54375;48.298;11.238;2023-05-03T16:12:58;7.18;;;5.72;;
50689;SDS011;54375;48.298;11.238;2023-05-03T16:28:00;5.85;;;4.47;;
50689;SDS011;54375;48.298;11.238;2023-05-03T16:43:03;64.35;;;46.42;;
50689;SDS011;54375;48.298;11.238;2023-05-03T16:58:05;6.50;;;5.28;;
50689;SDS011;54375;48.298;11.238;2023-05-03T17:13:08;5.80;;;4.40;;
50689;SDS011;54375;48.298;11.238;2023-05-03T17:28:10;7.22;;;4.30;;
50689;SDS011;54375;48.298;11.238;2023-05-03T17:43:12;4.82;;;3.88;;
50689;SDS011;54375;48.298;11.238;2023-05-03T17:58:15;5.85;;;4.35;;
50689;SDS011;54375;48.298;11.238;2023-05-03T18:13:17;6.38;;;4.50;;
50689;SDS011;54375;48.298;11.238;2023-05-03T18:28:19;6.88;;;5.22;;
50689;SDS011;54375;48.298;11.238;2023-05-03T18:43:22;8.85;;;4.75;;
50689;SDS011;54375;48.298;11.238;2023-05-03T18:58:24;7.68;;;4.90;;
50689;SDS011;54375;48.298;11.238;2023-05-03T19:13:26;6.57;;;5.03;;
50689;SDS011;54375;48.298;11.238;2023-05-03T19:28:29;7.55;;;4.97;;
50689;SDS011;54375;48.298;11.238;2023-05-03T19:43:31;7.75;;;5.90;;
50689;SDS011;54375;48.298;11.238;2023-05-03T19:58:33;8.68;;;6.88;;
50689;SDS011;54375;48.298;11.238;2023-05-03T20:13:36;10.15;;;8.38;;
50689;SDS011;54375;48.298;11.238;2023-05-03T20:28:38;10.98;;;8.20;;
50689;SDS011;54375;48.298;11.238;2023-05-03T20:43:40;11.82;;;7.72;;
50689;SDS011;54375;48.298;11.238;2023-05-03T20:58:43;9.27;;;6.63;;
50689;SDS011;54375;48.298;11.238;2023-05-03T21:13:45;9.90;;;7.50;;
50689;SDS011;54375;48.298;11.238;2023-05-03T21:28:48;10.32;;;7.18;;
50689;SDS011;54375;48.298;11.238;2023-05-03T21:43:50;15.65;;;11.20;;
50689;SDS011;54375;48.298;11.238;2023-05-03T21:58:52;13.68;;;9.90;;
50689;SDS011;54375;48.298;11.238;2023-05-03T22:13:54;15.65;;;10.00;;
50689;SDS011;54375;48.298;11.238;2023-05-03T22:28:57;18.15;;;13.00;;
50689;SDS011;54375;48.298;11.238;2023-05-03T22:43:59;18.73;;;13.05;;
50689;SDS011;54375;48.298;11.238;2023-05-03T22:59:01;17.65;;;11.90;;
50689;SDS011;54375;48.298;11.238;2023-05-03T23:14:03;17.27;;;12.40;;
50689;SDS011;54375;48.298;11.238;2023-05-03T23:29:06;19.63;;;13.73;;
50689;SDS011;54375;48.298;11.238;2023-05-03T23:44:08;20.50;;;13.55;;
50689;SDS011;54375;48.298;11.238;2023-05-03T23:59:11;21.60;;;14.15;;
